createdAt,value
2023-05-22T00:01:22.721Z,7.3
2023-05-22T00:03:03.060Z,8.6
2023-05-22T00:04:43.468Z,8.6
2023-05-22T00:06:23.758Z,8.6
2023-05-22T00:08:04.223Z,8.6
2023-05-22T00:09:44.608Z,8.6
2023-05-22T00:11:25.003Z,8.6
2023-05-22T00:13:05.532Z,8.6
2023-05-22T00:14:45.898Z,8.6
2023-05-22T00:16:26.291Z,8.6
2023-05-22T00:18:06.771Z,8.6
2023-05-22T00:19:47.079Z,8.6
2023-05-22T00:21:27.449Z,8.6
2023-05-22T00:23:07.768Z,8.2
2023-05-22T00:24:48.270Z,8.2
2023-05-22T00:26:28.701Z,8.2
2023-05-22T00:28:09.024Z,8.2
2023-05-22T00:29:49.462Z,8.2
2023-05-22T00:31:29.844Z,8.2
2023-05-22T00:33:10.237Z,9.4
2023-05-22T00:34:50.728Z,9.4
2023-05-22T00:36:31.104Z,9.4
2023-05-22T00:38:11.398Z,9.4
2023-05-22T00:39:51.771Z,9.4
2023-05-22T00:41:32.116Z,9.4
2023-05-22T00:43:12.640Z,10.2
2023-05-22T00:44:53.022Z,10.2
2023-05-22T00:46:33.545Z,10.2
2023-05-22T00:48:13.821Z,10.2
2023-05-22T00:49:54.161Z,10.2
2023-05-22T00:51:34.641Z,10.2
2023-05-22T00:53:15.015Z,8.4
2023-05-22T00:54:55.394Z,8.4
2023-05-22T00:56:35.976Z,8.4
2023-05-22T00:58:16.208Z,8.4
2023-05-22T00:59:56.623Z,8.4
2023-05-22T01:01:37.039Z,8.4
2023-05-22T01:03:17.566Z,9.2
2023-05-22T01:04:57.825Z,9.2
2023-05-22T01:06:38.350Z,9.2
2023-05-22T01:08:18.694Z,9.2
2023-05-22T01:09:59.134Z,9.2
2023-05-22T01:11:39.520Z,9.2
2023-05-22T01:13:19.964Z,9.3
2023-05-22T01:15:00.280Z,9.3
2023-05-22T01:16:40.721Z,9.3
2023-05-22T01:18:20.934Z,9.3
2023-05-22T01:20:01.583Z,9.3
2023-05-22T01:21:41.712Z,9.3
2023-05-22T01:23:22.109Z,11.4
2023-05-22T01:25:02.511Z,11.4
2023-05-22T01:26:42.872Z,11.4
2023-05-22T01:28:23.304Z,11.4
2023-05-22T01:30:03.742Z,11.4
2023-05-22T01:31:44.137Z,11.4
2023-05-22T01:33:24.847Z,5.4
2023-05-22T01:35:05.025Z,5.4
2023-05-22T01:36:45.364Z,5.4
2023-05-22T01:38:25.707Z,5.4
2023-05-22T01:40:06.221Z,5.4
2023-05-22T01:41:46.628Z,5.4
2023-05-22T01:43:27.026Z,5.2
2023-05-22T01:45:07.414Z,5.2
2023-05-22T01:46:47.760Z,5.2
2023-05-22T01:48:28.201Z,5.2
2023-05-22T01:50:08.695Z,5.2
2023-05-22T01:51:49.027Z,5.2
2023-05-22T01:53:29.481Z,6.1
2023-05-22T01:55:09.922Z,6.1
2023-05-22T01:56:50.402Z,6.1
2023-05-22T01:58:30.816Z,6.1
2023-05-22T02:00:11.274Z,6.1
2023-05-22T02:01:51.760Z,6.1
2023-05-22T02:03:32.258Z,8.25
2023-05-22T02:05:12.564Z,8.25
2023-05-22T02:06:53.007Z,8.25
2023-05-22T02:08:33.426Z,8.25
2023-05-22T02:10:13.812Z,8.25
2023-05-22T02:11:54.250Z,8.25
2023-05-22T02:13:34.697Z,6.6
2023-05-22T02:15:15.096Z,6.6
2023-05-22T02:16:55.595Z,6.6
2023-05-22T02:18:36.009Z,6.6
2023-05-22T02:20:16.313Z,6.6
2023-05-22T02:21:56.743Z,6.6
2023-05-22T02:23:36.945Z,5.6
2023-05-22T02:25:17.675Z,5.6
2023-05-22T02:26:57.532Z,5.6
2023-05-22T02:28:37.891Z,5.6
2023-05-22T02:30:18.323Z,5.6
2023-05-22T02:31:58.664Z,5.6
2023-05-22T02:33:39.026Z,9.8
2023-05-22T02:35:19.427Z,9.8
2023-05-22T02:36:59.858Z,9.8
2023-05-22T02:38:40.248Z,9.8
2023-05-22T02:40:20.717Z,9.8
2023-05-22T02:42:01.099Z,9.8
2023-05-22T02:43:41.570Z,7.3
2023-05-22T02:45:21.954Z,7.3
2023-05-22T02:47:02.455Z,7.3
2023-05-22T02:48:42.783Z,7.3
2023-05-22T02:50:23.249Z,7.3
2023-05-22T02:52:03.668Z,7.3
2023-05-22T02:53:44.089Z,8.25
2023-05-22T02:55:24.507Z,8.25
2023-05-22T02:57:05.019Z,8.25
2023-05-22T02:58:45.355Z,8.25
2023-05-22T03:00:25.688Z,8.25
2023-05-22T03:02:06.143Z,8.25
2023-05-22T03:03:46.629Z,9
2023-05-22T03:05:27.187Z,9
2023-05-22T03:07:07.373Z,9
2023-05-22T03:08:47.810Z,9
2023-05-22T03:10:28.151Z,9
2023-05-22T03:12:08.479Z,9
2023-05-22T03:13:49.021Z,8.3
2023-05-22T03:15:29.511Z,8.3
2023-05-22T03:17:09.835Z,8.3
2023-05-22T03:18:50.353Z,8.3
2023-05-22T03:20:30.770Z,8.3
2023-05-22T03:22:11.188Z,8.3
2023-05-22T03:23:51.545Z,9.4
2023-05-22T03:25:31.958Z,9.4
2023-05-22T03:27:12.396Z,9.4
2023-05-22T03:28:52.941Z,9.4
2023-05-22T03:30:33.187Z,9.4
2023-05-22T03:32:13.489Z,9.4
2023-05-22T03:33:54.064Z,8.7
2023-05-22T03:35:34.324Z,8.7
2023-05-22T03:37:14.647Z,8.7
2023-05-22T03:38:55.052Z,8.7
2023-05-22T03:40:35.481Z,8.7
2023-05-22T03:42:15.962Z,8.7
2023-05-22T03:43:56.398Z,8.7
2023-05-22T03:45:36.817Z,9.1
2023-05-22T03:47:17.170Z,9.1
2023-05-22T03:48:57.605Z,9.1
2023-05-22T03:50:38.380Z,9.1
2023-05-22T03:52:18.434Z,9.1
2023-05-22T03:53:58.873Z,10.1
2023-05-22T03:55:39.385Z,10.1
2023-05-22T03:57:19.824Z,10.1
2023-05-22T03:59:00.251Z,10.1
2023-05-22T04:00:40.737Z,10.1
2023-05-22T04:02:21.081Z,10.1
2023-05-22T04:04:01.324Z,10.1
2023-05-22T04:05:41.648Z,10.3
2023-05-22T04:07:21.941Z,10.3
2023-05-22T04:09:02.286Z,10.3
2023-05-22T04:10:42.767Z,10.3
2023-05-22T04:12:23.168Z,10.3
2023-05-22T04:14:03.723Z,11.2
2023-05-22T04:15:44.123Z,11.2
2023-05-22T04:17:24.568Z,11.2
2023-05-22T04:19:04.966Z,11.2
2023-05-22T04:20:45.420Z,11.2
2023-05-22T04:22:25.889Z,11.2
2023-05-22T04:24:06.344Z,11.2
2023-05-22T04:25:46.728Z,7.75
2023-05-22T04:27:27.138Z,7.75
2023-05-22T04:29:07.535Z,7.75
2023-05-22T04:30:47.924Z,7.75
2023-05-22T04:32:28.329Z,7.75
2023-05-22T04:34:08.620Z,7.75
2023-05-22T04:35:49.089Z,6.1
2023-05-22T04:37:29.457Z,6.1
2023-05-22T04:39:09.753Z,6.1
2023-05-22T04:40:50.119Z,6.1
2023-05-22T04:42:30.554Z,6.1
2023-05-22T04:44:11.023Z,6.1
2023-05-22T04:45:51.443Z,7.4
2023-05-22T04:47:32.076Z,7.4
2023-05-22T04:49:12.329Z,7.4
2023-05-22T04:50:52.796Z,7.4
2023-05-22T04:52:33.180Z,7.4
2023-05-22T04:54:13.627Z,7.4
2023-05-22T04:55:54.148Z,8.05
2023-05-22T04:57:34.588Z,8.05
2023-05-22T04:59:14.953Z,8.05
2023-05-22T05:00:55.453Z,8.05
2023-05-22T05:02:35.961Z,8.05
2023-05-22T05:04:16.383Z,8.05
2023-05-22T05:05:56.675Z,8.15
2023-05-22T05:07:37.025Z,8.15
2023-05-22T05:09:17.414Z,8.15
2023-05-22T05:10:57.813Z,8.15
2023-05-22T05:12:38.215Z,8.15
2023-05-22T05:14:18.683Z,8.15
2023-05-22T05:15:59.046Z,8.2
2023-05-22T05:17:39.525Z,8.2
2023-05-22T05:19:19.914Z,8.2
2023-05-22T05:21:00.386Z,8.2
2023-05-22T05:22:40.801Z,8.2
2023-05-22T05:24:21.326Z,8.2
2023-05-22T05:26:01.716Z,8.3
2023-05-22T05:27:42.136Z,8.3
2023-05-22T05:29:22.547Z,8.3
2023-05-22T05:31:02.947Z,8.3
2023-05-22T05:32:43.461Z,8.3
2023-05-22T05:34:23.772Z,8.3
2023-05-22T05:36:04.152Z,8
2023-05-22T05:37:44.510Z,8
2023-05-22T05:39:24.806Z,8
2023-05-22T05:41:05.295Z,8
2023-05-22T05:42:45.641Z,8
2023-05-22T05:44:26.140Z,8
2023-05-22T05:46:06.564Z,7.3
2023-05-22T05:47:46.955Z,7.3
2023-05-22T05:49:27.268Z,7.3
2023-05-22T05:51:07.707Z,7.3
2023-05-22T05:52:47.980Z,7.3
2023-05-22T05:54:28.390Z,7.3
2023-05-22T05:56:08.893Z,8.1
2023-05-22T05:57:49.263Z,8.1
2023-05-22T05:59:29.624Z,8.1
2023-05-22T06:01:10.099Z,8.1
2023-05-22T06:02:51.005Z,8.1
2023-05-22T06:04:30.939Z,8.1
2023-05-22T06:06:11.479Z,7.2
2023-05-22T06:07:51.872Z,7.2
2023-05-22T06:09:32.236Z,7.2
2023-05-22T06:11:12.700Z,7.2
2023-05-22T06:12:53.026Z,7.2
2023-05-22T06:14:33.438Z,7.2
2023-05-22T06:16:13.862Z,8.6
2023-05-22T06:17:54.331Z,8.6
2023-05-22T06:19:34.812Z,8.6
2023-05-22T06:21:15.111Z,8.6
2023-05-22T06:22:55.586Z,8.6
2023-05-22T06:24:36.061Z,8.6
2023-05-22T06:26:16.464Z,8.8
2023-05-22T06:27:56.858Z,8.8
2023-05-22T06:29:37.269Z,8.8
2023-05-22T06:31:17.659Z,8.8
2023-05-22T06:32:58.140Z,8.8
2023-05-22T06:34:38.493Z,8.8
2023-05-22T06:36:18.913Z,8.5
2023-05-22T06:37:59.330Z,8.5
2023-05-22T06:39:39.769Z,8.5
2023-05-22T06:41:20.269Z,8.5
2023-05-22T06:43:00.739Z,8.5
2023-05-22T06:44:41.130Z,8.5
2023-05-22T06:46:22.327Z,8.6
2023-05-22T06:48:02.071Z,8.6
2023-05-22T06:49:42.460Z,8.6
2023-05-22T06:51:22.850Z,8.6
2023-05-22T06:53:03.355Z,8.6
2023-05-22T06:54:43.651Z,8.6
2023-05-22T06:56:24.050Z,7.9
2023-05-22T06:58:04.520Z,7.9
2023-05-22T06:59:44.908Z,7.9
2023-05-22T07:01:25.333Z,7.9
2023-05-22T07:03:05.678Z,7.9
2023-05-22T07:04:46.046Z,7.9
2023-05-22T07:06:26.513Z,8
2023-05-22T07:08:06.919Z,8
2023-05-22T07:09:47.263Z,8
2023-05-22T07:11:27.719Z,8
2023-05-22T07:13:08.283Z,8
2023-05-22T07:14:48.822Z,8
2023-05-22T07:16:29.314Z,9.8
2023-05-22T07:18:09.655Z,9.8
2023-05-22T07:19:49.925Z,9.8
2023-05-22T07:21:30.332Z,9.8
2023-05-22T07:23:10.664Z,9.8
2023-05-22T07:24:51.143Z,9.8
2023-05-22T07:26:31.568Z,7
2023-05-22T07:28:12.017Z,7
2023-05-22T07:29:52.459Z,7
2023-05-22T07:31:32.880Z,7
2023-05-22T07:33:13.349Z,7
2023-05-22T07:34:53.712Z,7
2023-05-22T07:36:34.131Z,7.6
2023-05-22T07:38:14.600Z,7.6
2023-05-22T07:39:55.099Z,7.6
2023-05-22T07:41:35.586Z,7.6
2023-05-22T07:43:16.036Z,7.6
2023-05-22T07:44:56.483Z,7.6
2023-05-22T07:46:37.022Z,7.5
2023-05-22T07:48:17.431Z,7.5
2023-05-22T07:49:57.878Z,7.5
2023-05-22T07:51:38.368Z,7.5
2023-05-22T07:53:18.807Z,7.5
2023-05-22T07:54:59.301Z,7.5
2023-05-22T07:56:39.600Z,6.6
2023-05-22T07:58:20.047Z,6.6
2023-05-22T08:00:00.538Z,6.6
2023-05-22T08:01:40.761Z,6.6
2023-05-22T08:03:23.782Z,6.6
2023-05-22T08:05:01.708Z,6.6
2023-05-22T08:06:42.095Z,7.2
2023-05-22T08:08:22.464Z,7.2
2023-05-22T08:10:02.877Z,7.2
2023-05-22T08:11:43.283Z,7.2
2023-05-22T08:13:23.631Z,7.2
2023-05-22T08:15:04.056Z,7.2
2023-05-22T08:16:44.516Z,7.3
2023-05-22T08:18:24.849Z,7.3
2023-05-22T08:20:05.381Z,7.3
2023-05-22T08:21:45.719Z,7.3
2023-05-22T08:23:26.135Z,7.3
2023-05-22T08:25:06.578Z,7.3
2023-05-22T08:26:47.008Z,7.8
2023-05-22T08:28:27.355Z,7.8
2023-05-22T08:30:07.837Z,7.8
2023-05-22T08:31:48.265Z,7.8
2023-05-22T08:33:28.588Z,7.8
2023-05-22T08:35:08.974Z,7.8
2023-05-22T08:36:49.402Z,7.5
2023-05-22T08:38:29.942Z,7.5
2023-05-22T08:40:10.256Z,7.5
2023-05-22T08:41:50.684Z,7.5
2023-05-22T08:43:31.050Z,7.5
2023-05-22T08:45:11.398Z,7.5
2023-05-22T08:46:51.853Z,7.5
2023-05-22T08:48:32.229Z,6.7
2023-05-22T08:50:12.608Z,6.7
2023-05-22T08:51:52.954Z,6.7
2023-05-22T08:53:33.370Z,6.7
2023-05-22T08:55:13.818Z,6.7
2023-05-22T08:56:57.190Z,6.9
2023-05-22T08:58:34.734Z,6.9
2023-05-22T09:00:15.067Z,6.9
2023-05-22T09:01:55.506Z,6.9
2023-05-22T09:03:35.980Z,6.9
2023-05-22T09:05:16.658Z,6.9
2023-05-22T09:06:57.120Z,6.9
2023-05-22T09:08:37.522Z,7.1
2023-05-22T09:10:17.972Z,7.1
2023-05-22T09:11:58.345Z,7.1
2023-05-22T09:13:38.752Z,7.1
2023-05-22T09:15:19.223Z,7.1
2023-05-22T09:16:59.621Z,7.1
2023-05-22T09:18:40.002Z,6.8
2023-05-22T09:20:20.423Z,6.8
2023-05-22T09:22:00.815Z,6.8
2023-05-22T09:23:41.241Z,6.8
2023-05-22T09:25:21.713Z,6.8
2023-05-22T09:27:02.127Z,6.8
2023-05-22T09:28:42.476Z,7.1
2023-05-22T09:30:22.920Z,7.1
2023-05-22T09:32:03.264Z,7.1
2023-05-22T09:33:43.674Z,7.1
2023-05-22T09:35:24.058Z,7.1
2023-05-22T09:37:04.488Z,7.1
2023-05-22T09:38:44.840Z,8
2023-05-22T09:40:25.284Z,8
2023-05-22T09:42:05.669Z,8
2023-05-22T09:43:46.018Z,8
2023-05-22T09:45:26.439Z,8
2023-05-22T09:47:06.786Z,8
2023-05-22T09:48:47.279Z,7.1
2023-05-22T09:50:27.687Z,7.1
2023-05-22T09:52:08.006Z,7.1
2023-05-22T09:53:48.336Z,7.1
2023-05-22T09:55:28.769Z,7.1
2023-05-22T09:57:09.189Z,7.1
2023-05-22T09:58:49.592Z,7.2
2023-05-22T10:00:29.983Z,7.2
2023-05-22T10:02:10.453Z,7.2
2023-05-22T10:03:50.833Z,7.2
2023-05-22T10:05:31.218Z,7.2
2023-05-22T10:07:11.656Z,7.2
2023-05-22T10:08:52.001Z,7
2023-05-22T10:10:32.387Z,7
2023-05-22T10:12:12.834Z,7
2023-05-22T10:13:53.214Z,7
2023-05-22T10:15:33.630Z,7
2023-05-22T10:17:14.090Z,7
2023-05-22T10:18:54.579Z,8.8
2023-05-22T10:20:35.064Z,8.8
2023-05-22T10:22:15.478Z,8.8
2023-05-22T10:23:55.916Z,8.8
2023-05-22T10:25:36.287Z,8.8
2023-05-22T10:27:16.698Z,8.8
2023-05-22T10:28:57.103Z,6.6
2023-05-22T10:30:37.551Z,6.6
2023-05-22T10:32:17.936Z,6.6
2023-05-22T10:33:58.436Z,6.6
2023-05-22T10:35:38.762Z,6.6
2023-05-22T10:37:20.367Z,6.6
2023-05-22T10:38:59.674Z,6.9
2023-05-22T10:40:40.081Z,6.9
2023-05-22T10:42:20.553Z,6.9
2023-05-22T10:44:00.981Z,6.9
2023-05-22T10:45:42.533Z,6.9
2023-05-22T10:47:21.841Z,6.9
2023-05-22T10:49:02.300Z,6.8
2023-05-22T10:50:42.836Z,6.8
2023-05-22T10:52:23.144Z,6.8
2023-05-22T10:54:03.583Z,6.8
2023-05-22T10:55:43.963Z,6.8
2023-05-22T10:57:24.377Z,6.8
2023-05-22T10:59:04.776Z,6.2
2023-05-22T11:00:45.203Z,6.2
2023-05-22T11:02:25.841Z,6.2
2023-05-22T11:04:06.037Z,6.2
2023-05-22T11:05:46.491Z,6.2
2023-05-22T11:07:26.943Z,6.2
2023-05-22T11:09:07.421Z,7.2
2023-05-22T11:10:47.869Z,7.2
2023-05-22T11:12:28.248Z,7.2
2023-05-22T11:14:08.634Z,7.2
2023-05-22T11:15:49.056Z,7.2
2023-05-22T11:17:29.591Z,7.2
2023-05-22T11:19:22.803Z,6.9
2023-05-22T11:20:50.329Z,6.9
2023-05-22T11:22:30.793Z,6.9
2023-05-22T11:24:11.172Z,6.9
2023-05-22T11:25:51.650Z,6.9
2023-05-22T11:27:32.066Z,6.9
2023-05-22T11:29:12.425Z,6.7
2023-05-22T11:30:52.919Z,6.7
2023-05-22T11:32:33.346Z,6.7
2023-05-22T11:34:13.804Z,6.7
2023-05-22T11:35:54.148Z,6.7
2023-05-22T11:37:34.590Z,6.7
2023-05-22T11:39:14.983Z,6
2023-05-22T11:40:55.397Z,6
2023-05-22T11:42:35.839Z,6
2023-05-22T11:44:16.134Z,6
2023-05-22T11:45:56.652Z,6
2023-05-22T11:47:36.970Z,6
2023-05-22T11:49:17.391Z,6.8
2023-05-22T11:50:57.684Z,6.8
2023-05-22T11:52:38.127Z,6.8
2023-05-22T11:54:18.573Z,6.8
2023-05-22T11:55:58.975Z,6.8
2023-05-22T11:57:39.356Z,6.8
2023-05-22T11:59:19.854Z,6.4
2023-05-22T12:01:00.203Z,6.4
2023-05-22T12:02:40.630Z,6.4
2023-05-22T12:04:21.110Z,6.4
2023-05-22T12:06:01.477Z,6.4
2023-05-22T12:07:41.850Z,6.4
2023-05-22T12:09:22.261Z,6.4
2023-05-22T12:11:02.611Z,6.4
2023-05-22T12:12:43.010Z,6.4
2023-05-22T12:14:23.457Z,6.4
2023-05-22T12:16:04.083Z,6.4
2023-05-22T12:17:44.403Z,6.4
2023-05-22T12:19:24.840Z,6.4
2023-05-22T12:21:05.226Z,6.8
2023-05-22T12:22:45.668Z,6.8
2023-05-22T12:24:26.137Z,6.8
2023-05-22T12:26:06.517Z,6.8
2023-05-22T12:27:46.918Z,6.8
2023-05-22T12:29:27.312Z,6.2
2023-05-22T12:31:07.789Z,6.2
2023-05-22T12:32:48.366Z,6.2
2023-05-22T12:34:28.741Z,6.2
2023-05-22T12:36:09.322Z,6.2
2023-05-22T12:37:49.556Z,6.2
2023-05-22T12:39:29.974Z,6.2
2023-05-22T12:41:10.326Z,6.2
2023-05-22T12:42:50.702Z,6.2
2023-05-22T12:44:31.102Z,6.2
2023-05-22T12:46:11.528Z,6.2
2023-05-22T12:47:52.006Z,6.2
2023-05-22T12:49:32.411Z,6.2
2023-05-22T12:51:12.820Z,5.6
2023-05-22T12:52:53.260Z,5.6
2023-05-22T12:54:33.609Z,5.6
2023-05-22T12:56:14.051Z,5.6
2023-05-22T12:57:54.485Z,5.6
2023-05-22T12:59:34.917Z,5.6
2023-05-22T13:01:15.415Z,5.3
2023-05-22T13:02:55.841Z,5.3
2023-05-22T13:04:36.325Z,5.3
2023-05-22T13:06:16.644Z,5.3
2023-05-22T13:07:57.112Z,5.3
2023-05-22T13:09:37.585Z,5.3
2023-05-22T13:11:18.006Z,6.8
2023-05-22T13:12:58.458Z,6.8
2023-05-22T13:14:38.935Z,6.8
2023-05-22T13:16:19.444Z,6.8
2023-05-22T13:17:59.829Z,6.8
2023-05-22T13:19:40.229Z,6.8
2023-05-22T13:21:20.654Z,6.1
2023-05-22T13:23:01.151Z,6.1
2023-05-22T13:24:41.562Z,6.1
2023-05-22T13:26:21.969Z,6.1
2023-05-22T13:28:02.380Z,6.1
2023-05-22T13:29:42.785Z,6.1
2023-05-22T13:31:23.206Z,4.6
2023-05-22T13:33:03.726Z,4.6
2023-05-22T13:34:44.101Z,4.6
2023-05-22T13:36:24.568Z,4.6
2023-05-22T13:38:04.931Z,4.6
2023-05-22T13:39:45.393Z,4.6
2023-05-22T13:41:25.754Z,3.7
2023-05-22T13:43:06.261Z,3.7
2023-05-22T13:44:46.637Z,3.7
2023-05-22T13:46:27.088Z,3.7
2023-05-22T13:48:07.454Z,3.7
2023-05-22T13:49:47.870Z,3.7
2023-05-22T13:51:28.290Z,4.6
2023-05-22T13:53:08.639Z,4.6
2023-05-22T13:54:49.037Z,4.6
2023-05-22T13:56:29.528Z,4.6
2023-05-22T13:58:09.940Z,4.6
2023-05-22T13:59:50.392Z,4.6
2023-05-22T14:01:30.927Z,4.9
2023-05-22T14:03:11.378Z,4.9
2023-05-22T14:04:51.754Z,4.9
2023-05-22T14:06:32.102Z,4.9
2023-05-22T14:08:12.538Z,4.9
2023-05-22T14:09:52.973Z,4.9
2023-05-22T14:11:33.415Z,4.4
2023-05-22T14:13:13.826Z,4.4
2023-05-22T14:14:54.272Z,4.4
2023-05-22T14:16:34.721Z,4.4
2023-05-22T14:18:15.196Z,4.4
2023-05-22T14:19:55.666Z,4.4
2023-05-22T14:21:36.066Z,5.2
2023-05-22T14:23:16.517Z,5.2
2023-05-22T14:24:57.002Z,5.2
2023-05-22T14:26:37.456Z,5.2
2023-05-22T14:28:17.869Z,5.2
2023-05-22T14:29:58.361Z,5.2
2023-05-22T14:31:38.758Z,5
2023-05-22T14:33:19.164Z,5
2023-05-22T14:34:59.560Z,5
2023-05-22T14:36:39.923Z,5
2023-05-22T14:38:20.334Z,5
2023-05-22T14:40:00.784Z,5
2023-05-22T14:41:41.212Z,5.5
2023-05-22T14:43:21.590Z,5.5
2023-05-22T14:45:01.957Z,5.5
2023-05-22T14:46:42.601Z,5.5
2023-05-22T14:48:23.005Z,5.5
2023-05-22T14:50:18.092Z,5.5
2023-05-22T14:51:43.624Z,5
2023-05-22T14:53:24.059Z,5
2023-05-22T14:55:04.518Z,5
2023-05-22T14:56:44.919Z,5
2023-05-22T14:58:25.359Z,5
2023-05-22T15:00:09.051Z,5
2023-05-22T15:01:46.288Z,5.1
2023-05-22T15:03:26.703Z,5.1
2023-05-22T15:05:07.244Z,5.1
2023-05-22T15:06:47.442Z,5.1
2023-05-22T15:08:27.775Z,5.1
2023-05-22T15:10:08.171Z,5.1
2023-05-22T15:11:48.614Z,5.1
2023-05-22T15:13:29.012Z,5.1
2023-05-22T15:15:09.492Z,5.1
2023-05-22T15:16:49.883Z,5.1
2023-05-22T15:18:30.232Z,5.1
2023-05-22T15:20:10.654Z,5.1
2023-05-22T15:21:50.994Z,6.1
2023-05-22T15:23:31.345Z,6.1
2023-05-22T15:25:12.237Z,6.1
2023-05-22T15:26:52.095Z,6.1
2023-05-22T15:28:32.463Z,6.1
2023-05-22T15:30:12.890Z,6.1
2023-05-22T15:31:53.349Z,8.4
2023-05-22T15:33:33.746Z,8.4
2023-05-22T15:35:14.130Z,8.4
2023-05-22T15:36:54.627Z,8.4
2023-05-22T15:38:35.065Z,8.4
2023-05-22T15:40:15.536Z,8.4
2023-05-22T15:42:05.736Z,8.4
2023-05-22T15:43:36.328Z,8.7
2023-05-22T15:45:16.836Z,8.7
2023-05-22T15:46:57.285Z,8.7
2023-05-22T15:48:37.794Z,8.7
2023-05-22T15:50:18.190Z,8.7
2023-05-22T15:51:58.643Z,8.7
2023-05-22T15:53:39.072Z,11
2023-05-22T15:55:19.457Z,11
2023-05-22T15:56:59.776Z,11
2023-05-22T15:58:40.163Z,11
2023-05-22T16:00:20.542Z,11
2023-05-22T16:02:01.017Z,11
2023-05-22T16:03:41.631Z,7.4
2023-05-22T16:05:21.880Z,7.4
2023-05-22T16:07:02.270Z,7.4
2023-05-22T16:08:42.786Z,7.4
2023-05-22T16:10:23.205Z,7.4
2023-05-22T16:12:03.560Z,7.4
2023-05-22T16:13:43.971Z,7.9
2023-05-22T16:15:24.356Z,7.9
2023-05-22T16:17:04.817Z,7.9
2023-05-22T16:18:45.165Z,7.9
2023-05-22T16:20:25.597Z,7.9
2023-05-22T16:22:06.086Z,7.9
2023-05-22T16:23:46.494Z,6.6
2023-05-22T16:25:26.931Z,6.6
2023-05-22T16:27:07.389Z,6.6
2023-05-22T16:28:47.836Z,6.6
2023-05-22T16:30:28.284Z,6.6
2023-05-22T16:32:08.691Z,6.6
2023-05-22T16:33:49.144Z,5.7
2023-05-22T16:35:29.481Z,5.7
2023-05-22T16:37:09.950Z,5.7
2023-05-22T16:38:50.331Z,5.7
2023-05-22T16:40:30.727Z,5.7
2023-05-22T16:42:11.120Z,5.7
2023-05-22T16:43:51.618Z,5.7
2023-05-22T16:45:31.933Z,5.7
2023-05-22T16:47:12.426Z,5.7
2023-05-22T16:48:52.860Z,5.7
2023-05-22T16:50:33.316Z,5.7
2023-05-22T16:52:13.779Z,5.7
2023-05-22T16:53:54.205Z,5.6
2023-05-22T16:55:34.572Z,5.6
2023-05-22T16:57:14.973Z,5.6
2023-05-22T16:58:55.380Z,5.6
2023-05-22T17:00:35.792Z,5.6
2023-05-22T17:02:16.251Z,5.6
2023-05-22T17:03:56.664Z,7
2023-05-22T17:05:36.994Z,7
2023-05-22T17:07:17.392Z,7
2023-05-22T17:08:57.830Z,7
2023-05-22T17:10:38.126Z,7
2023-05-22T17:12:18.467Z,7
2023-05-22T17:13:58.928Z,6.9
2023-05-22T17:15:39.544Z,6.9
2023-05-22T17:17:19.803Z,6.9
2023-05-22T17:19:00.345Z,6.9
2023-05-22T17:20:40.698Z,6.9
2023-05-22T17:22:21.137Z,6.9
2023-05-22T17:24:01.596Z,6.7
2023-05-22T17:25:42.208Z,6.7
2023-05-22T17:27:35.024Z,6.7
2023-05-22T17:29:02.790Z,6.7
2023-05-22T17:30:43.427Z,6.7
2023-05-22T17:32:23.714Z,6.7
2023-05-22T17:34:04.113Z,6
2023-05-22T17:35:47.657Z,6
2023-05-22T17:37:25.026Z,6
2023-05-22T17:39:05.418Z,6
2023-05-22T17:40:46.467Z,6
2023-05-22T17:42:26.298Z,6
2023-05-22T17:44:06.755Z,5.8
2023-05-22T17:45:47.084Z,5.8
2023-05-22T17:47:27.497Z,5.8
2023-05-22T17:49:07.949Z,5.8
2023-05-22T17:50:48.353Z,5.8
2023-05-22T17:52:28.797Z,5.8
2023-05-22T17:54:09.302Z,6.6
2023-05-22T17:55:49.684Z,6.6
2023-05-22T17:57:30.065Z,6.6
2023-05-22T17:59:10.506Z,6.6
2023-05-22T18:00:50.992Z,6.6
2023-05-22T18:02:31.517Z,6.6
2023-05-22T18:04:11.907Z,5.7
2023-05-22T18:05:52.398Z,5.7
2023-05-22T18:07:32.851Z,5.7
2023-05-22T18:09:13.240Z,5.7
2023-05-22T18:10:53.675Z,5.7
2023-05-22T18:12:38.265Z,5.7
2023-05-22T18:14:14.564Z,5.5
2023-05-22T18:15:55.011Z,5.5
2023-05-22T18:17:35.540Z,5.5
2023-05-22T18:19:15.943Z,5.5
2023-05-22T18:20:56.313Z,5.5
2023-05-22T18:22:36.775Z,5.5
2023-05-22T18:24:17.192Z,6.3
2023-05-22T18:25:57.609Z,6.3
2023-05-22T18:27:38.042Z,6.3
2023-05-22T18:29:18.465Z,6.3
2023-05-22T18:30:58.864Z,6.3
2023-05-22T18:32:39.415Z,6.3
2023-05-22T18:34:19.938Z,6.5
2023-05-22T18:36:00.380Z,6.5
2023-05-22T18:37:40.828Z,6.5
2023-05-22T18:39:21.201Z,6.5
2023-05-22T18:41:01.610Z,6.5
2023-05-22T18:42:42.005Z,6.5
2023-05-22T18:44:22.366Z,5.7
2023-05-22T18:46:02.792Z,5.7
2023-05-22T18:47:43.213Z,5.7
2023-05-22T18:49:23.581Z,5.7
2023-05-22T18:51:04.002Z,5.7
2023-05-22T18:52:44.356Z,5.7
2023-05-22T18:54:24.810Z,6.3
2023-05-22T18:56:05.324Z,6.3
2023-05-22T18:57:45.786Z,6.3
2023-05-22T18:59:26.182Z,6.3
2023-05-22T19:01:09.662Z,6.3
2023-05-22T19:02:46.963Z,6.3
2023-05-22T19:04:27.485Z,6.9
2023-05-22T19:06:07.890Z,6.9
2023-05-22T19:07:48.266Z,6.9
2023-05-22T19:09:28.729Z,6.9
2023-05-22T19:11:09.169Z,6.9
2023-05-22T19:12:49.548Z,6.9
2023-05-22T19:14:29.939Z,5.9
2023-05-22T19:16:10.443Z,5.9
2023-05-22T19:17:50.931Z,5.9
2023-05-22T19:19:31.517Z,5.9
2023-05-22T19:21:11.746Z,5.9
2023-05-22T19:22:52.175Z,5.9
2023-05-22T19:24:32.523Z,5.6
2023-05-22T19:26:12.890Z,5.6
2023-05-22T19:27:53.309Z,5.6
2023-05-22T19:29:33.817Z,5.6
2023-05-22T19:31:14.353Z,5.6
2023-05-22T19:32:54.718Z,5.6
2023-05-22T19:34:35.182Z,4.7
2023-05-22T19:36:15.601Z,4.7
2023-05-22T19:37:56.040Z,4.7
2023-05-22T19:39:36.474Z,4.7
2023-05-22T19:41:16.874Z,4.7
2023-05-22T19:42:57.308Z,4.7
2023-05-22T19:44:37.642Z,4.1
2023-05-22T19:46:18.027Z,4.1
2023-05-22T19:47:58.511Z,4.1
2023-05-22T19:49:38.817Z,4.1
2023-05-22T19:51:19.253Z,4.1
2023-05-22T19:52:59.664Z,4.1
2023-05-22T19:54:40.116Z,4.1
2023-05-22T19:56:20.592Z,5.3
2023-05-22T19:58:00.930Z,5.3
2023-05-22T19:59:48.380Z,5.3
2023-05-22T20:01:21.746Z,5.3
2023-05-22T20:03:02.204Z,5.3
2023-05-22T20:04:42.436Z,5.3
2023-05-22T20:06:22.830Z,4
2023-05-22T20:08:03.250Z,4
2023-05-22T20:09:43.628Z,4
2023-05-22T20:11:24.008Z,4
2023-05-22T20:13:04.436Z,4
2023-05-22T20:14:44.792Z,4
2023-05-22T20:16:27.566Z,4.3
2023-05-22T20:18:05.584Z,4.3
2023-05-22T20:19:45.952Z,4.3
2023-05-22T20:21:26.382Z,4.3
2023-05-22T20:23:06.690Z,4.3
2023-05-22T20:24:47.096Z,4.3
2023-05-22T20:26:27.490Z,4.8
2023-05-22T20:28:07.891Z,4.8
2023-05-22T20:29:48.249Z,4.8
2023-05-22T20:31:28.597Z,4.8
2023-05-22T20:33:09.047Z,4.8
2023-05-22T20:34:49.405Z,4.8
2023-05-22T20:36:29.813Z,5
2023-05-22T20:38:10.228Z,5
2023-05-22T20:39:50.628Z,5
2023-05-22T20:41:30.968Z,5
2023-05-22T20:43:11.381Z,5
2023-05-22T20:44:51.818Z,5
2023-05-22T20:46:32.364Z,5.6
2023-05-22T20:48:12.761Z,5.6
2023-05-22T20:49:53.054Z,5.6
2023-05-22T20:51:33.554Z,5.6
2023-05-22T20:53:13.864Z,5.6
2023-05-22T20:54:54.297Z,5.6
2023-05-22T20:56:34.687Z,5.4
2023-05-22T20:58:15.018Z,5.4
2023-05-22T20:59:55.424Z,5.4
2023-05-22T21:01:35.981Z,5.4
2023-05-22T21:03:16.316Z,5.4
2023-05-22T21:04:56.722Z,5.4
2023-05-22T21:06:37.161Z,5.8
2023-05-22T21:08:17.547Z,5.8
2023-05-22T21:09:58.002Z,5.8
2023-05-22T21:11:38.378Z,5.8
2023-05-22T21:13:18.802Z,5.8
2023-05-22T21:14:59.123Z,5.8
2023-05-22T21:16:39.718Z,5.8
2023-05-22T21:18:19.874Z,5.8
2023-05-22T21:20:00.355Z,5.8
2023-05-22T21:21:40.783Z,5.8
2023-05-22T21:23:23.150Z,5.8
2023-05-22T21:25:01.666Z,5.8
2023-05-22T21:26:42.049Z,7.5
2023-05-22T21:28:22.409Z,7.5
2023-05-22T21:30:02.836Z,7.5
2023-05-22T21:31:43.320Z,7.5
2023-05-22T21:33:23.538Z,7.5
2023-05-22T21:35:03.925Z,7.5
2023-05-22T21:36:44.344Z,7.1
2023-05-22T21:38:24.730Z,7.1
2023-05-22T21:40:05.180Z,7.1
2023-05-22T21:41:46.083Z,7.1
2023-05-22T21:43:26.033Z,7.1
2023-05-22T21:45:06.378Z,7.1
2023-05-22T21:46:46.815Z,6.8
2023-05-22T21:48:27.197Z,6.8
2023-05-22T21:50:07.619Z,6.8
2023-05-22T21:51:48.025Z,6.8
2023-05-22T21:53:28.382Z,6.8
2023-05-22T21:55:08.799Z,6.8
2023-05-22T21:56:49.260Z,8.4
2023-05-22T21:58:29.628Z,8.4
2023-05-22T22:00:10.068Z,8.4
2023-05-22T22:01:50.406Z,0
2023-05-22T22:03:30.903Z,0
2023-05-22T22:05:11.209Z,0
2023-05-22T22:06:51.573Z,0
2023-05-22T22:08:32.026Z,0
2023-05-22T22:10:12.420Z,0
2023-05-22T22:11:52.893Z,4.9
2023-05-22T22:13:33.255Z,4.9
2023-05-22T22:15:13.574Z,4.9
2023-05-22T22:16:54.045Z,4.9
2023-05-22T22:18:34.393Z,4.9
2023-05-22T22:20:14.847Z,4.9
2023-05-22T22:21:55.252Z,4.8
2023-05-22T22:23:35.674Z,4.8
2023-05-22T22:25:16.064Z,4.8
2023-05-22T22:26:56.499Z,4.8
2023-05-22T22:28:37.008Z,4.8
2023-05-22T22:30:17.262Z,4.8
2023-05-22T22:31:57.716Z,5.1
2023-05-22T22:33:38.087Z,5.1
2023-05-22T22:35:18.643Z,5.1
2023-05-22T22:36:58.977Z,5.1
2023-05-22T22:38:39.409Z,5.1
2023-05-22T22:40:19.760Z,5.1
2023-05-22T22:42:00.164Z,5.1
2023-05-22T22:43:40.716Z,5.1
2023-05-22T22:45:21.104Z,5.1
2023-05-22T22:47:01.456Z,5.1
2023-05-22T22:48:41.834Z,5.1
2023-05-22T22:50:22.219Z,5.1
2023-05-22T22:52:02.622Z,5
2023-05-22T22:53:42.877Z,5
2023-05-22T22:55:23.313Z,5
2023-05-22T22:57:03.729Z,5
2023-05-22T22:58:44.181Z,5
2023-05-22T23:00:24.684Z,5
2023-05-22T23:02:05.101Z,5.9
2023-05-22T23:03:45.539Z,5.9
2023-05-22T23:05:25.888Z,5.9
2023-05-22T23:07:06.249Z,5.9
2023-05-22T23:08:46.589Z,5.9
2023-05-22T23:10:26.976Z,5.9